Flight Track Log - Related Links

Times and Time Zones

All times are in EDT time to prevent confusion due to time zone crossing. See the ASQ5145 flight status page for this flight to view local times or setup timezone preferences in your user account.

Time Position Orientation Groundspeed Altitude Reporting Facility
EDT Latitude Longitude Course Direction KTS MPH feet Rate Location/Type
Wed 01:54:27 PM 33.6500 -84.4667 285° West 160 184 2,700  Level Atlanta TRACON
Wed 01:56:21 PM 33.6833 -84.6167 285° West 250 288 7,200 2,272 Climbing Atlanta TRACON
Wed 01:57:53 PM 33.6983 -84.7556 277° West 259 298 10,500 1,855 Climbing Atlanta Center
Wed 01:58:53 PM 33.7144 -84.8581 281° West 293 337 11,900 1,700 Climbing Atlanta Center
Wed 01:59:53 PM 33.7303 -84.9681 280° West 326 375 13,900 2,000 Climbing Atlanta Center
Wed 02:00:53 PM 33.7481 -85.0756 281° West 337 388 15,900 1,950 Climbing Atlanta Center
Wed 02:01:53 PM 33.7617 -85.1908 278° West 342 394 17,800 1,650 Climbing Atlanta Center
Wed 02:02:53 PM 33.7836 -85.3083 283° West 356 410 19,200 1,450 Climbing Atlanta Center
Wed 02:03:53 PM 33.8011 -85.4239 280° West 356 410 20,700 1,450 Climbing Atlanta Center
Wed 02:04:53 PM 33.8208 -85.5317 282° West 361 415 22,100 1,550 Climbing Atlanta Center
Wed 02:05:53 PM 33.8400 -85.6494 281° West 356 410 23,800 1,500 Climbing Atlanta Center
Wed 02:06:53 PM 33.8761 -85.7603 291° West 356 410 25,100 1,100 Climbing Atlanta Center
Wed 02:07:53 PM 33.9081 -85.8658 290° West 361 415 26,000 900 Climbing Atlanta Center
Wed 02:08:53 PM 33.9458 -85.9844 291° West 361 415 26,900 850 Climbing Atlanta Center
Wed 02:09:53 PM 33.9836 -86.1031 291° West 373 429 27,700 800 Climbing Atlanta Center
Wed 02:10:53 PM 34.0189 -86.2317 288° West 384 442 28,500 800 Climbing Atlanta Center
Wed 02:11:53 PM 34.0542 -86.3531 289° West 390 449 29,300 850 Climbing Atlanta Center
Wed 02:12:53 PM 34.0894 -86.4794 289° West 390 449 30,200 1,100 Climbing Atlanta Center
Wed 02:13:53 PM 34.1244 -86.6008 289° West 395 455 31,500 1,295 Climbing Atlanta Center
Wed 02:14:21 PM 34.1431 -86.6731 287° West 389 448 32,100 1,091 Climbing Memphis Center
Wed 02:15:21 PM 34.1778 -86.7944 289° West 384 442 33,100 950 Climbing Memphis Center
Wed 02:16:21 PM 34.2083 -86.9114 288° West 393 452 34,000 450 Climbing Memphis Center
Wed 02:17:21 PM 34.2406 -87.0256 289° West 384 442 34,000  Level Memphis Center
Wed 02:18:21 PM 34.2753 -87.1550 288° West 390 449 34,000  Level Memphis Center
Wed 02:19:21 PM 34.3144 -87.2969 289° West 399 459 34,000  Level Memphis Center
Wed 02:20:21 PM 34.3508 -87.4239 289° West 399 459 34,000  Level Memphis Center
Wed 02:21:21 PM 34.3850 -87.5533 288° West 409 471 34,000  Level Memphis Center
Wed 02:22:21 PM 34.4233 -87.6781 290° West 402 463 34,000  Level Memphis Center
Wed 02:23:21 PM 34.4533 -87.8081 286° West 395 455 34,000  Level Memphis Center
Wed 02:24:21 PM 34.4892 -87.9331 289° West 395 455 34,000  Level Memphis Center
Wed 02:25:21 PM 34.5228 -88.0581 288° West 400 460 34,000  Level Memphis Center
Wed 02:26:21 PM 34.5500 -88.1708 286° West 393 452 34,000  Level Memphis Center
Wed 02:27:21 PM 34.5856 -88.3061 288° West 398 458 34,000  Level Memphis Center
Wed 02:28:21 PM 34.6189 -88.4292 288° West 398 458 34,000  Level Memphis Center
Wed 02:29:21 PM 34.6519 -88.5494 289° West 387 445 34,000  Level Memphis Center
Wed 02:30:21 PM 34.6850 -88.6725 288° West 382 440 34,000  Level Memphis Center
Wed 02:31:21 PM 34.7158 -88.7983 287° West 382 440 34,000  Level Memphis Center
Wed 02:32:21 PM 34.7486 -88.9239 288° West 381 438 34,000  Level Memphis Center
Wed 02:33:21 PM 34.7814 -89.0575 287° West 381 438 34,000  Level Memphis Center
Wed 02:34:21 PM 34.8161 -89.1833 289° West 381 438 34,000  Level Memphis Center
Wed 02:35:21 PM 34.8464 -89.3069 287° West 381 438 34,000  Level Memphis Center
Wed 02:36:21 PM 34.8786 -89.4306 288° West 381 438 34,000  Level Memphis Center
Wed 02:37:21 PM 34.9108 -89.5519 288° West 376 433 34,000  Level Memphis Center
Wed 02:38:21 PM 34.9406 -89.6528 290° West 381 438 34,000  Level Memphis Center
Wed 02:39:21 PM 34.9811 -89.8097 288° West 400 460 34,000  Level Memphis Center
Wed 02:40:21 PM 35.0086 -89.9386 285° West 405 466 34,000  Level Memphis Center
Wed 02:41:21 PM 35.0425 -90.0603 289° West 394 453 34,000  Level Memphis Center
Wed 02:42:21 PM 35.0803 -90.1844 290° West 394 453 34,000  Level Memphis Center
Wed 02:43:21 PM 35.1200 -90.3039 292° West 388 447 34,000  Level Memphis Center
Wed 02:44:21 PM 35.1575 -90.4256 291° West 388 447 34,000  Level Memphis Center
Wed 02:45:21 PM 35.1969 -90.5503 291° West 388 447 34,000  Level Memphis Center
Wed 02:46:21 PM 35.2344 -90.6697 291° West 386 444 34,000  Level Memphis Center
Wed 02:47:21 PM 35.2717 -90.7919 290° West 386 444 34,000  Level Memphis Center
Wed 02:48:21 PM 35.3108 -90.9142 291° West 386 444 34,000  Level Memphis Center
Wed 02:49:21 PM 35.3414 -91.0214 289° West 391 450 34,000  Level Memphis Center
Wed 02:50:21 PM 35.3844 -91.1567 291° West 386 444 34,000  Level Memphis Center
Wed 02:51:21 PM 35.4131 -91.2539 290° West 386 444 34,000  Level Memphis Center
Wed 02:52:21 PM 35.4517 -91.3867 290° West 391 450 34,000  Level Memphis Center
Wed 02:53:21 PM 35.4942 -91.5172 292° West 380 437 34,000  Level Memphis Center
Wed 02:54:21 PM 35.5286 -91.6378 289° West 380 437 34,000  Level Memphis Center
Wed 02:55:21 PM 35.5669 -91.7583 291° West 374 430 34,000  Level Memphis Center
Wed 02:56:21 PM 35.6011 -91.8764 290° West 374 430 34,000  Level Memphis Center
Wed 02:57:21 PM 35.6369 -91.9944 291° West 369 425 34,000  Level Memphis Center
Wed 02:58:21 PM 35.6708 -92.1128 289° West 369 425 34,000  Level Memphis Center
Wed 02:59:21 PM 35.7067 -92.2311 290° West 369 425 34,000  Level Memphis Center
Wed 03:00:21 PM 35.7425 -92.3519 290° West 369 425 34,000  Level Memphis Center
Wed 03:01:21 PM 35.7758 -92.4681 290° West 369 425 34,000  Level Memphis Center
Wed 03:02:21 PM 35.8114 -92.5842 291° West 369 425 34,000  Level Memphis Center
Wed 03:03:21 PM 35.8447 -92.7028 289° West 369 425 34,000  Level Memphis Center
Wed 03:04:21 PM 35.8781 -92.8189 290° West 369 425 34,000  Level Memphis Center
Wed 03:05:21 PM 35.9131 -92.9353 290° West 369 425 34,000  Level Memphis Center
Wed 03:06:21 PM 35.9442 -93.0439 290° West 369 425 34,000  Level Memphis Center
Wed 03:07:21 PM 35.9769 -93.1606 289° West 362 417 34,000  Level Memphis Center
Wed 03:08:21 PM 36.0097 -93.2772 289° West 362 417 34,000  Level Memphis Center
Wed 03:09:21 PM 36.0425 -93.3939 289° West 367 422 34,000  Level Memphis Center
Wed 03:10:21 PM 36.0769 -93.5131 290° West 367 422 34,000  Level Memphis Center
Wed 03:11:21 PM 36.1075 -93.6275 288° West 367 422 34,000  Level Memphis Center
Wed 03:12:21 PM 36.1397 -93.7444 289° West 362 417 34,000  Level Memphis Center
Wed 03:13:21 PM 36.1742 -93.8614 290° West 362 417 34,000 -550 Level Memphis Center
Wed 03:14:21 PM 36.2019 -93.9808 286° West 367 422 32,900 -1,350 Descending Memphis Center
Wed 03:15:21 PM 36.2358 -94.1008 289° West 367 422 31,300 -1,550 Descending Memphis Center
Wed 03:16:21 PM 36.2406 -94.2219 273° West 361 415 29,800 -1,950 Descending Memphis Center
Wed 03:17:21 PM 36.2389 -94.3428 269° West 351 404 27,400 -2,700 Descending Memphis Center
Wed 03:18:21 PM 36.2350 -94.4611 268° West 351 404 24,400 -3,000 Descending Memphis Center
Wed 03:19:21 PM 36.2333 -94.5742 269° West 345 397 21,400 -3,000 Descending Memphis Center
Wed 03:20:21 PM 36.2231 -94.6894 264° West 345 397 18,400 -2,870 Descending Memphis Center
Wed 03:20:53 PM 36.2078 -94.7506 253° West 330 380 17,000 -2,774 Descending Kansas City Center
Wed 03:21:54 PM 36.1772 -94.8561 250° West 326 375 14,100 -2,803 Descending Kansas City Center
Wed 03:22:55 PM 36.1800 -94.9650 272° West 321 369 11,300 -1,984 Descending Kansas City Center
Wed 03:23:58 PM 36.1839 -95.0775 272° West 324 373 10,000 -918 Descending Kansas City Center
Wed 03:24:20 PM 36.1836 -95.1192 270° West 318 366 10,000 -590 Level Kansas City Center
Wed 03:24:59 PM 36.1861 -95.1728 273° West 289 333 9,400 -1,300 Descending Kansas City Center
Wed 03:25:20 PM 36.1875 -95.2067 273° West 245 282 8,700 -1,619 Descending Kansas City Center
Wed 03:26:02 PM 36.1881 -95.2594 271° West 259 298 7,700 -1,456 Descending Kansas City Center
Wed 03:27:03 PM 36.1894 -95.3486 271° West 256 295 6,200 -1,359 Descending Kansas City Center
Wed 03:28:10 PM 36.1914 -95.4600 271° West 266 306 4,800 -1,056 Descending Kansas City Center
Wed 03:29:08 PM 36.1936 -95.5269 272° West 255 293 4,000 -1,008 Descending Kansas City Center
Wed 03:30:09 PM 36.1983 -95.6292 273° West 248 285 2,800 -672 Descending Kansas City Center
Wed 03:31:13 PM 36.1958 -95.7050 268° West 234 269 2,600 -336 Descending Kansas City Center
Wed 03:32:14 PM 36.1958 -95.7711 270° West 211 243 2,100 -492 Descending Kansas City Center
Wed 03:33:15 PM 36.1953 -95.8217 269° West 176 203 1,600 -492 Descending Kansas City Center

Login

Don't have an account? Register now (free) for customized features, flight alerts, and more!